ROMMA est une association bénévole à but non lucratif. Votre soutien est indispensable : ADHERER à ROMMA ou FAIRE un DON

Granges-lès-Beaumont - (26, Drôme)

Drôme des Collines (155 m)   Longitude: 04°58'E   Latitude: 45°03'N Station partenaire n°123
 

Détail journalier du     <<     >>

Température Precipitation Humidité Pression Vent Dir Rafale Dir. rafale Ensol.
Heure (°C) (mm) (%) (hPa) (km/h) (km/h) (min)
01:00 15.507810131---5NNO0
02:00 14.807910131NNO5NNO0
03:00 14.2082101300---0
04:00 14.1082101300---0
05:00 13.908110132NNO6NNO0
06:00 14.0081101302NNO0
07:00 14.3079101400---0
08:00 15.2077101400---0
09:00 16.707210153NO10NNO0
10:00 19.5064101510N23NE10
11:00 21.7057101512N26NE60
12:00 23.3054101513NNE32NE40
13:00 25.0049101413NNE26N30
14:00 25.6045101416N29N60
15:00 26.9041101316NNO34NNO60
16:00 24.3045101315NNE32NNE40
17:00 25.7045101316NO37NO40
18:00 21.8051101316NO39NNO10
19:00 21.2055101415NO32NNO10
20:00 18.8065101515NO35NO0
21:00 17.307210159NO24NNO0
22:00 16.807110156N11NNO0
23:00 16.807110169NNO24NO0
minuit 16.707310168N21NO0

Graphique du 25-05-2019

 

Serveur OMMA